sensor_id;sensor_type;location;lat;lon;timestamp;P1;durP1;ratioP1;P2;durP2;ratioP2
9156;SDS011;4613;48.392;9.998;2022-11-06T00:00:04;5.22;;;3.70;;
9156;SDS011;4613;48.392;9.998;2022-11-06T00:02:57;4.72;;;3.13;;
9156;SDS011;4613;48.392;9.998;2022-11-06T00:05:48;4.80;;;3.15;;
9156;SDS011;4613;48.392;9.998;2022-11-06T00:08:59;6.93;;;4.00;;
9156;SDS011;4613;48.392;9.998;2022-11-06T00:11:51;4.15;;;3.17;;
9156;SDS011;4613;48.392;9.998;2022-11-06T00:14:41;5.15;;;3.33;;
9156;SDS011;4613;48.392;9.998;2022-11-06T00:17:30;4.25;;;3.30;;
9156;SDS011;4613;48.392;9.998;2022-11-06T00:20:19;3.88;;;2.85;;
9156;SDS011;4613;48.392;9.998;2022-11-06T00:23:09;3.65;;;2.85;;
9156;SDS011;4613;48.392;9.998;2022-11-06T00:25:58;4.15;;;2.40;;
9156;SDS011;4613;48.392;9.998;2022-11-06T00:28:47;3.42;;;2.42;;
9156;SDS011;4613;48.392;9.998;2022-11-06T00:31:37;3.17;;;2.83;;
9156;SDS011;4613;48.392;9.998;2022-11-06T00:34:26;3.90;;;2.75;;
9156;SDS011;4613;48.392;9.998;2022-11-06T00:37:16;2.83;;;2.45;;
9156;SDS011;4613;48.392;9.998;2022-11-06T00:40:06;4.20;;;2.75;;
9156;SDS011;4613;48.392;9.998;2022-11-06T00:42:56;3.40;;;2.63;;
9156;SDS011;4613;48.392;9.998;2022-11-06T00:45:45;5.43;;;3.58;;
9156;SDS011;4613;48.392;9.998;2022-11-06T00:48:35;6.50;;;3.90;;
9156;SDS011;4613;48.392;9.998;2022-11-06T00:51:26;4.05;;;3.30;;
9156;SDS011;4613;48.392;9.998;2022-11-06T00:54:19;7.35;;;3.85;;
9156;SDS011;4613;48.392;9.998;2022-11-06T00:57:08;4.05;;;3.30;;
9156;SDS011;4613;48.392;9.998;2022-11-06T00:59:57;5.93;;;3.58;;
9156;SDS011;4613;48.392;9.998;2022-11-06T01:02:46;4.05;;;3.17;;
9156;SDS011;4613;48.392;9.998;2022-11-06T01:05:35;4.43;;;3.83;;
9156;SDS011;4613;48.392;9.998;2022-11-06T01:08:25;5.50;;;3.33;;
9156;SDS011;4613;48.392;9.998;2022-11-06T01:11:16;4.28;;;3.13;;
9156;SDS011;4613;48.392;9.998;2022-11-06T01:14:17;4.53;;;3.53;;
9156;SDS011;4613;48.392;9.998;2022-11-06T01:17:07;3.50;;;2.95;;
9156;SDS011;4613;48.392;9.998;2022-11-06T01:19:57;4.40;;;3.03;;
9156;SDS011;4613;48.392;9.998;2022-11-06T01:22:46;4.03;;;3.08;;
9156;SDS011;4613;48.392;9.998;2022-11-06T01:25:35;3.80;;;3.10;;
9156;SDS011;4613;48.392;9.998;2022-11-06T01:28:24;4.28;;;3.00;;
9156;SDS011;4613;48.392;9.998;2022-11-06T01:31:17;4.53;;;3.72;;
9156;SDS011;4613;48.392;9.998;2022-11-06T01:34:10;4.38;;;3.35;;
9156;SDS011;4613;48.392;9.998;2022-11-06T01:37:00;5.90;;;3.83;;
9156;SDS011;4613;48.392;9.998;2022-11-06T01:39:49;5.90;;;3.78;;
9156;SDS011;4613;48.392;9.998;2022-11-06T01:42:38;6.05;;;3.67;;
9156;SDS011;4613;48.392;9.998;2022-11-06T01:45:30;7.47;;;4.03;;
9156;SDS011;4613;48.392;9.998;2022-11-06T01:48:25;6.53;;;4.32;;
9156;SDS011;4613;48.392;9.998;2022-11-06T01:51:16;7.47;;;4.00;;
9156;SDS011;4613;48.392;9.998;2022-11-06T01:54:06;7.53;;;4.90;;
9156;SDS011;4613;48.392;9.998;2022-11-06T01:56:57;6.50;;;4.40;;
9156;SDS011;4613;48.392;9.998;2022-11-06T01:59:49;7.68;;;3.72;;
9156;SDS011;4613;48.392;9.998;2022-11-06T02:02:40;5.50;;;3.67;;
9156;SDS011;4613;48.392;9.998;2022-11-06T02:05:30;7.28;;;4.05;;
9156;SDS011;4613;48.392;9.998;2022-11-06T02:08:20;5.15;;;3.45;;
9156;SDS011;4613;48.392;9.998;2022-11-06T02:11:09;7.25;;;4.38;;
9156;SDS011;4613;48.392;9.998;2022-11-06T02:14:15;6.07;;;3.92;;
9156;SDS011;4613;48.392;9.998;2022-11-06T02:17:14;7.18;;;3.70;;
9156;SDS011;4613;48.392;9.998;2022-11-06T02:20:27;7.78;;;3.42;;
9156;SDS011;4613;48.392;9.998;2022-11-06T02:23:30;6.05;;;4.15;;
9156;SDS011;4613;48.392;9.998;2022-11-06T02:26:49;4.72;;;3.58;;
9156;SDS011;4613;48.392;9.998;2022-11-06T02:30:07;4.30;;;3.42;;
9156;SDS011;4613;48.392;9.998;2022-11-06T02:33:05;4.40;;;3.45;;
9156;SDS011;4613;48.392;9.998;2022-11-06T02:36:00;5.05;;;3.40;;
9156;SDS011;4613;48.392;9.998;2022-11-06T02:39:01;4.57;;;3.40;;
9156;SDS011;4613;48.392;9.998;2022-11-06T02:41:55;3.97;;;3.40;;
9156;SDS011;4613;48.392;9.998;2022-11-06T02:44:47;4.50;;;2.97;;
9156;SDS011;4613;48.392;9.998;2022-11-06T02:47:39;5.88;;;3.42;;
9156;SDS011;4613;48.392;9.998;2022-11-06T02:50:32;5.00;;;3.78;;
9156;SDS011;4613;48.392;9.998;2022-11-06T02:53:29;5.90;;;3.83;;
9156;SDS011;4613;48.392;9.998;2022-11-06T02:56:21;7.13;;;3.60;;
9156;SDS011;4613;48.392;9.998;2022-11-06T02:59:26;7.28;;;4.38;;
9156;SDS011;4613;48.392;9.998;2022-11-06T03:02:35;8.55;;;4.45;;
9156;SDS011;4613;48.392;9.998;2022-11-06T03:05:37;6.80;;;4.28;;
9156;SDS011;4613;48.392;9.998;2022-11-06T03:08:34;5.70;;;3.75;;
9156;SDS011;4613;48.392;9.998;2022-11-06T03:11:35;6.75;;;3.90;;
9156;SDS011;4613;48.392;9.998;2022-11-06T03:14:36;6.78;;;4.05;;
9156;SDS011;4613;48.392;9.998;2022-11-06T03:23:45;3.90;;;3.00;;
9156;SDS011;4613;48.392;9.998;2022-11-06T03:26:42;4.18;;;3.13;;
9156;SDS011;4613;48.392;9.998;2022-11-06T03:29:40;4.40;;;2.75;;
9156;SDS011;4613;48.392;9.998;2022-11-06T03:32:37;4.60;;;2.92;;
9156;SDS011;4613;48.392;9.998;2022-11-06T03:35:32;4.80;;;3.25;;
9156;SDS011;4613;48.392;9.998;2022-11-06T03:38:32;4.78;;;3.20;;
9156;SDS011;4613;48.392;9.998;2022-11-06T03:41:42;4.30;;;3.47;;
9156;SDS011;4613;48.392;9.998;2022-11-06T03:44:38;6.80;;;3.72;;
9156;SDS011;4613;48.392;9.998;2022-11-06T03:47:32;4.25;;;2.95;;
9156;SDS011;4613;48.392;9.998;2022-11-06T03:53:53;4.63;;;3.13;;
9156;SDS011;4613;48.392;9.998;2022-11-06T03:59:47;3.88;;;2.83;;
9156;SDS011;4613;48.392;9.998;2022-11-06T04:02:41;4.70;;;3.60;;
9156;SDS011;4613;48.392;9.998;2022-11-06T04:05:39;4.30;;;3.13;;
9156;SDS011;4613;48.392;9.998;2022-11-06T04:08:31;5.05;;;3.10;;
9156;SDS011;4613;48.392;9.998;2022-11-06T04:11:40;3.58;;;3.22;;
9156;SDS011;4613;48.392;9.998;2022-11-06T04:14:51;3.38;;;3.08;;
9156;SDS011;4613;48.392;9.998;2022-11-06T04:17:42;4.80;;;3.55;;
9156;SDS011;4613;48.392;9.998;2022-11-06T04:20:34;3.08;;;2.78;;
9156;SDS011;4613;48.392;9.998;2022-11-06T04:30:18;4.75;;;3.45;;
9156;SDS011;4613;48.392;9.998;2022-11-06T04:33:13;7.10;;;3.63;;
9156;SDS011;4613;48.392;9.998;2022-11-06T04:36:11;4.47;;;3.63;;
9156;SDS011;4613;48.392;9.998;2022-11-06T04:45:45;3.65;;;3.30;;
9156;SDS011;4613;48.392;9.998;2022-11-06T04:48:38;4.10;;;3.30;;
9156;SDS011;4613;48.392;9.998;2022-11-06T04:51:30;3.42;;;3.10;;
9156;SDS011;4613;48.392;9.998;2022-11-06T04:54:23;5.32;;;3.90;;
9156;SDS011;4613;48.392;9.998;2022-11-06T04:57:13;4.70;;;2.90;;
9156;SDS011;4613;48.392;9.998;2022-11-06T05:00:03;3.67;;;3.10;;
9156;SDS011;4613;48.392;9.998;2022-11-06T05:02:54;3.85;;;2.97;;
9156;SDS011;4613;48.392;9.998;2022-11-06T05:05:44;2.95;;;2.58;;
9156;SDS011;4613;48.392;9.998;2022-11-06T05:08:33;4.97;;;3.38;;
9156;SDS011;4613;48.392;9.998;2022-11-06T05:11:22;4.60;;;3.10;;
9156;SDS011;4613;48.392;9.998;2022-11-06T05:14:12;3.92;;;2.88;;
9156;SDS011;4613;48.392;9.998;2022-11-06T05:17:01;3.53;;;2.75;;
9156;SDS011;4613;48.392;9.998;2022-11-06T05:19:51;4.88;;;3.63;;
9156;SDS011;4613;48.392;9.998;2022-11-06T05:22:41;3.92;;;2.70;;
9156;SDS011;4613;48.392;9.998;2022-11-06T05:25:45;4.90;;;3.30;;
9156;SDS011;4613;48.392;9.998;2022-11-06T05:28:35;4.20;;;2.90;;
9156;SDS011;4613;48.392;9.998;2022-11-06T05:31:24;7.90;;;2.55;;
9156;SDS011;4613;48.392;9.998;2022-11-06T05:34:14;3.10;;;2.78;;
9156;SDS011;4613;48.392;9.998;2022-11-06T05:37:03;3.80;;;3.22;;
9156;SDS011;4613;48.392;9.998;2022-11-06T05:39:52;3.15;;;2.85;;
9156;SDS011;4613;48.392;9.998;2022-11-06T05:42:42;3.92;;;3.50;;
9156;SDS011;4613;48.392;9.998;2022-11-06T05:45:32;4.90;;;3.30;;
9156;SDS011;4613;48.392;9.998;2022-11-06T05:48:21;3.78;;;3.03;;
9156;SDS011;4613;48.392;9.998;2022-11-06T05:51:10;3.75;;;2.67;;
9156;SDS011;4613;48.392;9.998;2022-11-06T05:54:00;3.65;;;3.17;;
9156;SDS011;4613;48.392;9.998;2022-11-06T05:56:50;4.20;;;2.83;;
9156;SDS011;4613;48.392;9.998;2022-11-06T05:59:39;3.17;;;2.80;;
9156;SDS011;4613;48.392;9.998;2022-11-06T06:02:30;3.03;;;2.58;;
9156;SDS011;4613;48.392;9.998;2022-11-06T06:05:19;3.70;;;2.90;;
9156;SDS011;4613;48.392;9.998;2022-11-06T06:08:08;2.92;;;2.63;;
9156;SDS011;4613;48.392;9.998;2022-11-06T06:10:57;2.97;;;2.67;;
9156;SDS011;4613;48.392;9.998;2022-11-06T06:13:46;4.13;;;2.85;;
9156;SDS011;4613;48.392;9.998;2022-11-06T06:16:36;6.10;;;4.18;;
9156;SDS011;4613;48.392;9.998;2022-11-06T06:19:25;5.40;;;3.80;;
9156;SDS011;4613;48.392;9.998;2022-11-06T06:22:15;4.72;;;2.92;;
9156;SDS011;4613;48.392;9.998;2022-11-06T06:25:05;3.88;;;3.20;;
9156;SDS011;4613;48.392;9.998;2022-11-06T06:27:55;3.70;;;3.30;;
9156;SDS011;4613;48.392;9.998;2022-11-06T06:30:45;4.55;;;3.50;;
9156;SDS011;4613;48.392;9.998;2022-11-06T06:33:34;4.40;;;3.42;;
9156;SDS011;4613;48.392;9.998;2022-11-06T06:36:24;3.30;;;2.80;;
9156;SDS011;4613;48.392;9.998;2022-11-06T06:39:13;4.53;;;3.10;;
9156;SDS011;4613;48.392;9.998;2022-11-06T06:42:02;3.40;;;3.00;;
9156;SDS011;4613;48.392;9.998;2022-11-06T06:44:52;4.05;;;2.97;;
9156;SDS011;4613;48.392;9.998;2022-11-06T06:47:41;3.25;;;2.83;;
9156;SDS011;4613;48.392;9.998;2022-11-06T06:50:30;6.60;;;3.50;;
9156;SDS011;4613;48.392;9.998;2022-11-06T06:53:19;4.22;;;3.13;;
9156;SDS011;4613;48.392;9.998;2022-11-06T06:56:08;4.32;;;3.05;;
9156;SDS011;4613;48.392;9.998;2022-11-06T06:58:58;5.30;;;3.55;;
9156;SDS011;4613;48.392;9.998;2022-11-06T07:01:48;6.25;;;3.90;;
9156;SDS011;4613;48.392;9.998;2022-11-06T07:04:37;4.18;;;3.20;;
9156;SDS011;4613;48.392;9.998;2022-11-06T07:07:26;2.75;;;2.55;;
9156;SDS011;4613;48.392;9.998;2022-11-06T07:10:15;4.55;;;2.72;;
9156;SDS011;4613;48.392;9.998;2022-11-06T07:13:05;3.65;;;2.67;;
9156;SDS011;4613;48.392;9.998;2022-11-06T07:15:54;3.47;;;2.50;;
9156;SDS011;4613;48.392;9.998;2022-11-06T07:18:44;4.78;;;3.15;;
9156;SDS011;4613;48.392;9.998;2022-11-06T07:21:33;3.85;;;2.95;;
9156;SDS011;4613;48.392;9.998;2022-11-06T07:24:22;4.38;;;2.92;;
9156;SDS011;4613;48.392;9.998;2022-11-06T07:27:11;3.17;;;2.88;;
9156;SDS011;4613;48.392;9.998;2022-11-06T07:30:03;4.72;;;2.92;;
9156;SDS011;4613;48.392;9.998;2022-11-06T07:32:52;4.50;;;3.22;;
9156;SDS011;4613;48.392;9.998;2022-11-06T07:35:42;2.85;;;2.55;;
9156;SDS011;4613;48.392;9.998;2022-11-06T07:38:32;3.22;;;2.42;;
9156;SDS011;4613;48.392;9.998;2022-11-06T07:41:22;4.43;;;3.30;;
9156;SDS011;4613;48.392;9.998;2022-11-06T07:44:12;5.00;;;3.13;;
9156;SDS011;4613;48.392;9.998;2022-11-06T07:47:02;3.28;;;2.70;;
9156;SDS011;4613;48.392;9.998;2022-11-06T07:49:51;4.50;;;3.28;;
9156;SDS011;4613;48.392;9.998;2022-11-06T07:52:41;3.50;;;2.67;;
9156;SDS011;4613;48.392;9.998;2022-11-06T07:55:30;3.10;;;2.70;;
9156;SDS011;4613;48.392;9.998;2022-11-06T07:58:19;3.63;;;2.45;;
9156;SDS011;4613;48.392;9.998;2022-11-06T08:01:12;3.78;;;2.53;;
9156;SDS011;4613;48.392;9.998;2022-11-06T08:04:03;3.40;;;2.80;;
9156;SDS011;4613;48.392;9.998;2022-11-06T08:06:53;2.78;;;2.30;;
9156;SDS011;4613;48.392;9.998;2022-11-06T08:09:42;2.47;;;2.28;;
9156;SDS011;4613;48.392;9.998;2022-11-06T08:12:31;1.80;;;1.70;;
9156;SDS011;4613;48.392;9.998;2022-11-06T08:15:21;5.22;;;2.42;;
9156;SDS011;4613;48.392;9.998;2022-11-06T08:18:11;2.22;;;2.05;;
9156;SDS011;4613;48.392;9.998;2022-11-06T08:21:00;3.67;;;2.58;;
9156;SDS011;4613;48.392;9.998;2022-11-06T08:23:50;3.30;;;2.38;;
9156;SDS011;4613;48.392;9.998;2022-11-06T08:26:40;3.00;;;2.13;;
9156;SDS011;4613;48.392;9.998;2022-11-06T08:29:29;2.80;;;2.58;;
9156;SDS011;4613;48.392;9.998;2022-11-06T08:32:20;3.17;;;2.80;;
9156;SDS011;4613;48.392;9.998;2022-11-06T08:35:09;2.60;;;2.40;;
9156;SDS011;4613;48.392;9.998;2022-11-06T08:37:59;2.00;;;1.85;;
9156;SDS011;4613;48.392;9.998;2022-11-06T08:40:49;3.47;;;2.65;;
9156;SDS011;4613;48.392;9.998;2022-11-06T08:43:39;2.67;;;1.98;;
9156;SDS011;4613;48.392;9.998;2022-11-06T08:46:29;4.43;;;2.58;;
9156;SDS011;4613;48.392;9.998;2022-11-06T08:49:18;2.53;;;2.30;;
9156;SDS011;4613;48.392;9.998;2022-11-06T08:52:08;2.92;;;2.45;;
9156;SDS011;4613;48.392;9.998;2022-11-06T08:54:58;2.85;;;2.53;;
9156;SDS011;4613;48.392;9.998;2022-11-06T08:57:48;2.78;;;2.05;;
9156;SDS011;4613;48.392;9.998;2022-11-06T09:00:37;3.05;;;2.58;;
9156;SDS011;4613;48.392;9.998;2022-11-06T09:03:27;2.55;;;2.35;;
9156;SDS011;4613;48.392;9.998;2022-11-06T09:06:16;3.08;;;2.47;;
9156;SDS011;4613;48.392;9.998;2022-11-06T09:09:05;2.40;;;2.20;;
9156;SDS011;4613;48.392;9.998;2022-11-06T09:11:54;2.42;;;2.22;;
9156;SDS011;4613;48.392;9.998;2022-11-06T09:14:45;3.10;;;2.67;;
9156;SDS011;4613;48.392;9.998;2022-11-06T09:17:40;2.83;;;2.28;;
9156;SDS011;4613;48.392;9.998;2022-11-06T09:20:30;3.30;;;2.40;;
9156;SDS011;4613;48.392;9.998;2022-11-06T09:23:21;3.13;;;2.13;;
9156;SDS011;4613;48.392;9.998;2022-11-06T09:26:11;2.63;;;2.42;;
9156;SDS011;4613;48.392;9.998;2022-11-06T09:29:00;3.08;;;2.47;;
9156;SDS011;4613;48.392;9.998;2022-11-06T09:31:49;3.35;;;2.65;;
9156;SDS011;4613;48.392;9.998;2022-11-06T09:34:40;2.40;;;2.17;;
9156;SDS011;4613;48.392;9.998;2022-11-06T09:37:29;2.97;;;2.20;;
9156;SDS011;4613;48.392;9.998;2022-11-06T09:46:25;2.72;;;2.30;;
9156;SDS011;4613;48.392;9.998;2022-11-06T09:49:35;3.97;;;2.70;;
9156;SDS011;4613;48.392;9.998;2022-11-06T09:53:14;2.72;;;2.20;;
9156;SDS011;4613;48.392;9.998;2022-11-06T09:55:47;3.30;;;2.50;;
9156;SDS011;4613;48.392;9.998;2022-11-06T09:58:39;3.38;;;2.50;;
9156;SDS011;4613;48.392;9.998;2022-11-06T10:01:37;3.35;;;2.35;;
9156;SDS011;4613;48.392;9.998;2022-11-06T10:04:46;2.58;;;2.30;;
9156;SDS011;4613;48.392;9.998;2022-11-06T10:14:19;3.40;;;2.50;;
9156;SDS011;4613;48.392;9.998;2022-11-06T10:20:19;3.10;;;2.60;;
9156;SDS011;4613;48.392;9.998;2022-11-06T10:33:03;2.20;;;2.00;;
9156;SDS011;4613;48.392;9.998;2022-11-06T10:36:14;2.63;;;2.30;;
9156;SDS011;4613;48.392;9.998;2022-11-06T10:39:11;2.30;;;2.10;;
9156;SDS011;4613;48.392;9.998;2022-11-06T10:42:11;2.65;;;2.35;;
9156;SDS011;4613;48.392;9.998;2022-11-06T10:45:11;3.70;;;2.75;;
9156;SDS011;4613;48.392;9.998;2022-11-06T10:48:21;3.05;;;2.58;;
9156;SDS011;4613;48.392;9.998;2022-11-06T10:51:25;2.92;;;2.63;;
9156;SDS011;4613;48.392;9.998;2022-11-06T10:54:26;3.83;;;2.72;;
9156;SDS011;4613;48.392;9.998;2022-11-06T10:57:41;6.93;;;4.45;;
9156;SDS011;4613;48.392;9.998;2022-11-06T11:00:50;3.17;;;2.28;;
9156;SDS011;4613;48.392;9.998;2022-11-06T11:03:42;3.15;;;2.50;;
9156;SDS011;4613;48.392;9.998;2022-11-06T11:06:32;3.45;;;2.47;;
9156;SDS011;4613;48.392;9.998;2022-11-06T11:09:26;2.40;;;2.20;;
9156;SDS011;4613;48.392;9.998;2022-11-06T11:12:21;2.30;;;2.10;;
9156;SDS011;4613;48.392;9.998;2022-11-06T11:15:14;3.10;;;2.80;;
9156;SDS011;4613;48.392;9.998;2022-11-06T11:21:12;3.03;;;2.45;;
9156;SDS011;4613;48.392;9.998;2022-11-06T11:24:13;2.97;;;2.42;;
9156;SDS011;4613;48.392;9.998;2022-11-06T11:27:03;3.10;;;2.22;;
9156;SDS011;4613;48.392;9.998;2022-11-06T11:29:54;2.88;;;2.47;;
9156;SDS011;4613;48.392;9.998;2022-11-06T11:32:44;2.08;;;1.98;;
9156;SDS011;4613;48.392;9.998;2022-11-06T11:35:34;4.17;;;2.40;;
9156;SDS011;4613;48.392;9.998;2022-11-06T11:38:26;2.90;;;2.58;;
9156;SDS011;4613;48.392;9.998;2022-11-06T11:47:01;2.70;;;2.30;;
9156;SDS011;4613;48.392;9.998;2022-11-06T11:53:17;2.30;;;2.08;;
9156;SDS011;4613;48.392;9.998;2022-11-06T11:56:12;3.00;;;2.67;;
9156;SDS011;4613;48.392;9.998;2022-11-06T11:59:04;2.88;;;2.58;;
9156;SDS011;4613;48.392;9.998;2022-11-06T12:01:54;3.92;;;2.70;;
9156;SDS011;4613;48.392;9.998;2022-11-06T12:05:00;4.47;;;3.13;;
9156;SDS011;4613;48.392;9.998;2022-11-06T12:07:54;2.75;;;2.55;;
9156;SDS011;4613;48.392;9.998;2022-11-06T12:10:45;2.60;;;2.40;;
9156;SDS011;4613;48.392;9.998;2022-11-06T12:13:35;2.17;;;1.98;;
9156;SDS011;4613;48.392;9.998;2022-11-06T12:16:28;1.90;;;1.80;;
9156;SDS011;4613;48.392;9.998;2022-11-06T12:19:27;3.67;;;2.20;;
9156;SDS011;4613;48.392;9.998;2022-11-06T12:22:33;2.20;;;2.00;;
9156;SDS011;4613;48.392;9.998;2022-11-06T12:25:35;2.28;;;2.08;;
9156;SDS011;4613;48.392;9.998;2022-11-06T12:28:28;2.88;;;2.00;;
9156;SDS011;4613;48.392;9.998;2022-11-06T12:34:32;2.33;;;1.80;;
9156;SDS011;4613;48.392;9.998;2022-11-06T12:46:59;2.00;;;1.90;;
9156;SDS011;4613;48.392;9.998;2022-11-06T12:50:17;2.60;;;2.23;;
9156;SDS011;4613;48.392;9.998;2022-11-06T12:56:21;2.80;;;2.30;;
9156;SDS011;4613;48.392;9.998;2022-11-06T13:11:48;3.93;;;2.73;;
9156;SDS011;4613;48.392;9.998;2022-11-06T13:21:16;3.57;;;2.80;;
9156;SDS011;4613;48.392;9.998;2022-11-06T13:24:25;3.30;;;2.70;;
9156;SDS011;4613;48.392;9.998;2022-11-06T13:27:22;3.87;;;2.47;;
9156;SDS011;4613;48.392;9.998;2022-11-06T13:30:20;3.33;;;2.90;;
9156;SDS011;4613;48.392;9.998;2022-11-06T13:33:34;2.70;;;2.27;;
9156;SDS011;4613;48.392;9.998;2022-11-06T13:36:26;2.90;;;2.60;;
9156;SDS011;4613;48.392;9.998;2022-11-06T13:42:19;3.20;;;2.67;;
9156;SDS011;4613;48.392;9.998;2022-11-06T13:45:19;2.47;;;2.27;;
9156;SDS011;4613;48.392;9.998;2022-11-06T13:51:45;4.37;;;2.87;;
9156;SDS011;4613;48.392;9.998;2022-11-06T13:58:05;3.13;;;2.50;;
9156;SDS011;4613;48.392;9.998;2022-11-06T14:01:08;3.07;;;2.47;;
9156;SDS011;4613;48.392;9.998;2022-11-06T14:04:28;2.87;;;2.20;;
9156;SDS011;4613;48.392;9.998;2022-11-06T14:07:49;4.13;;;2.30;;
9156;SDS011;4613;48.392;9.998;2022-11-06T14:10:43;2.60;;;2.40;;
9156;SDS011;4613;48.392;9.998;2022-11-06T14:20:05;2.90;;;2.60;;
9156;SDS011;4613;48.392;9.998;2022-11-06T14:26:35;2.73;;;2.23;;
9156;SDS011;4613;48.392;9.998;2022-11-06T14:38:31;4.00;;;2.57;;
9156;SDS011;4613;48.392;9.998;2022-11-06T14:44:45;4.07;;;2.70;;
9156;SDS011;4613;48.392;9.998;2022-11-06T14:47:40;3.17;;;2.87;;
9156;SDS011;4613;48.392;9.998;2022-11-06T14:50:38;3.47;;;2.60;;
9156;SDS011;4613;48.392;9.998;2022-11-06T14:54:03;3.03;;;2.73;;
9156;SDS011;4613;48.392;9.998;2022-11-06T14:56:52;2.47;;;2.27;;
9156;SDS011;4613;48.392;9.998;2022-11-06T14:59:42;3.90;;;2.70;;
9156;SDS011;4613;48.392;9.998;2022-11-06T15:02:32;2.50;;;2.30;;
9156;SDS011;4613;48.392;9.998;2022-11-06T15:05:23;2.60;;;2.40;;
9156;SDS011;4613;48.392;9.998;2022-11-06T15:17:20;3.23;;;2.40;;
9156;SDS011;4613;48.392;9.998;2022-11-06T15:20:14;3.13;;;2.63;;
9156;SDS011;4613;48.392;9.998;2022-11-06T15:23:11;3.27;;;2.30;;
9156;SDS011;4613;48.392;9.998;2022-11-06T15:26:19;2.87;;;2.27;;
9156;SDS011;4613;48.392;9.998;2022-11-06T15:32:09;2.83;;;2.50;;
9156;SDS011;4613;48.392;9.998;2022-11-06T15:35:25;2.97;;;2.37;;
9156;SDS011;4613;48.392;9.998;2022-11-06T15:38:19;4.85;;;2.95;;
9156;SDS011;4613;48.392;9.998;2022-11-06T15:41:11;3.10;;;2.77;;
9156;SDS011;4613;48.392;9.998;2022-11-06T15:44:09;3.40;;;2.70;;
9156;SDS011;4613;48.392;9.998;2022-11-06T15:46:59;2.92;;;2.45;;
9156;SDS011;4613;48.392;9.998;2022-11-06T15:56:06;3.60;;;3.00;;
9156;SDS011;4613;48.392;9.998;2022-11-06T15:59:06;5.05;;;3.40;;
9156;SDS011;4613;48.392;9.998;2022-11-06T16:01:55;4.37;;;3.07;;
9156;SDS011;4613;48.392;9.998;2022-11-06T16:04:45;5.10;;;3.67;;
9156;SDS011;4613;48.392;9.998;2022-11-06T16:07:38;5.53;;;3.97;;
9156;SDS011;4613;48.392;9.998;2022-11-06T16:10:28;4.63;;;3.30;;
9156;SDS011;4613;48.392;9.998;2022-11-06T16:13:18;6.03;;;3.60;;
9156;SDS011;4613;48.392;9.998;2022-11-06T16:19:28;3.53;;;3.13;;
9156;SDS011;4613;48.392;9.998;2022-11-06T16:22:27;3.63;;;2.97;;
9156;SDS011;4613;48.392;9.998;2022-11-06T16:25:18;5.97;;;4.30;;
9156;SDS011;4613;48.392;9.998;2022-11-06T16:28:41;5.47;;;3.92;;
9156;SDS011;4613;48.392;9.998;2022-11-06T16:31:31;4.85;;;3.30;;
9156;SDS011;4613;48.392;9.998;2022-11-06T16:37:54;5.45;;;3.60;;
9156;SDS011;4613;48.392;9.998;2022-11-06T16:43:32;4.05;;;3.17;;
9156;SDS011;4613;48.392;9.998;2022-11-06T16:46:25;3.92;;;3.25;;
9156;SDS011;4613;48.392;9.998;2022-11-06T16:49:53;4.32;;;3.30;;
9156;SDS011;4613;48.392;9.998;2022-11-06T16:52:45;4.53;;;3.35;;
9156;SDS011;4613;48.392;9.998;2022-11-06T16:55:41;5.05;;;3.70;;
9156;SDS011;4613;48.392;9.998;2022-11-06T16:58:32;5.40;;;3.95;;
9156;SDS011;4613;48.392;9.998;2022-11-06T17:01:45;4.45;;;3.47;;
9156;SDS011;4613;48.392;9.998;2022-11-06T17:04:36;4.38;;;3.67;;
9156;SDS011;4613;48.392;9.998;2022-11-06T17:07:25;3.78;;;3.30;;
9156;SDS011;4613;48.392;9.998;2022-11-06T17:13:35;4.20;;;3.22;;
9156;SDS011;4613;48.392;9.998;2022-11-06T17:16:25;4.70;;;3.27;;
9156;SDS011;4613;48.392;9.998;2022-11-06T17:19:16;4.90;;;3.80;;
9156;SDS011;4613;48.392;9.998;2022-11-06T17:22:08;4.33;;;3.93;;
9156;SDS011;4613;48.392;9.998;2022-11-06T17:25:05;4.65;;;3.75;;
9156;SDS011;4613;48.392;9.998;2022-11-06T17:27:57;4.97;;;3.90;;
9156;SDS011;4613;48.392;9.998;2022-11-06T17:30:47;5.47;;;3.60;;
9156;SDS011;4613;48.392;9.998;2022-11-06T17:33:37;5.07;;;3.42;;
9156;SDS011;4613;48.392;9.998;2022-11-06T17:39:48;3.80;;;3.15;;
9156;SDS011;4613;48.392;9.998;2022-11-06T17:42:48;5.60;;;4.00;;
9156;SDS011;4613;48.392;9.998;2022-11-06T17:45:53;5.05;;;3.63;;
9156;SDS011;4613;48.392;9.998;2022-11-06T17:49:21;3.63;;;3.28;;
9156;SDS011;4613;48.392;9.998;2022-11-06T17:52:10;5.60;;;3.80;;
9156;SDS011;4613;48.392;9.998;2022-11-06T17:55:00;3.95;;;3.40;;
9156;SDS011;4613;48.392;9.998;2022-11-06T17:57:53;3.80;;;3.40;;
9156;SDS011;4613;48.392;9.998;2022-11-06T18:00:43;5.18;;;3.63;;
9156;SDS011;4613;48.392;9.998;2022-11-06T18:03:32;4.20;;;3.58;;
9156;SDS011;4613;48.392;9.998;2022-11-06T18:06:23;5.38;;;3.85;;
9156;SDS011;4613;48.392;9.998;2022-11-06T18:09:19;4.05;;;3.17;;
9156;SDS011;4613;48.392;9.998;2022-11-06T18:12:11;5.55;;;3.50;;
9156;SDS011;4613;48.392;9.998;2022-11-06T18:15:16;4.30;;;3.33;;
9156;SDS011;4613;48.392;9.998;2022-11-06T18:18:07;5.22;;;3.85;;
9156;SDS011;4613;48.392;9.998;2022-11-06T18:20:56;4.18;;;3.50;;
9156;SDS011;4613;48.392;9.998;2022-11-06T18:23:51;3.70;;;3.03;;
9156;SDS011;4613;48.392;9.998;2022-11-06T18:26:45;4.07;;;3.50;;
9156;SDS011;4613;48.392;9.998;2022-11-06T18:33:42;3.85;;;3.28;;
9156;SDS011;4613;48.392;9.998;2022-11-06T18:36:43;4.72;;;3.47;;
9156;SDS011;4613;48.392;9.998;2022-11-06T18:39:42;3.50;;;3.20;;
9156;SDS011;4613;48.392;9.998;2022-11-06T18:42:38;5.30;;;3.90;;
9156;SDS011;4613;48.392;9.998;2022-11-06T18:48:59;3.90;;;3.53;;
9156;SDS011;4613;48.392;9.998;2022-11-06T18:52:10;4.60;;;3.88;;
9156;SDS011;4613;48.392;9.998;2022-11-06T18:55:03;4.57;;;3.80;;
9156;SDS011;4613;48.392;9.998;2022-11-06T18:57:57;6.10;;;4.05;;
9156;SDS011;4613;48.392;9.998;2022-11-06T19:01:02;4.72;;;3.75;;
9156;SDS011;4613;48.392;9.998;2022-11-06T19:03:59;5.03;;;3.78;;
9156;SDS011;4613;48.392;9.998;2022-11-06T19:06:53;5.70;;;4.15;;
9156;SDS011;4613;48.392;9.998;2022-11-06T19:09:48;4.45;;;3.72;;
9156;SDS011;4613;48.392;9.998;2022-11-06T19:12:48;4.22;;;3.45;;
9156;SDS011;4613;48.392;9.998;2022-11-06T19:15:50;4.95;;;3.67;;
9156;SDS011;4613;48.392;9.998;2022-11-06T19:22:24;4.28;;;3.20;;
9156;SDS011;4613;48.392;9.998;2022-11-06T19:25:21;4.57;;;3.75;;
9156;SDS011;4613;48.392;9.998;2022-11-06T19:28:20;4.80;;;3.80;;
9156;SDS011;4613;48.392;9.998;2022-11-06T19:31:26;4.43;;;3.75;;
9156;SDS011;4613;48.392;9.998;2022-11-06T19:34:39;4.82;;;3.78;;
9156;SDS011;4613;48.392;9.998;2022-11-06T19:37:56;3.78;;;3.13;;
9156;SDS011;4613;48.392;9.998;2022-11-06T19:41:38;3.83;;;3.30;;
9156;SDS011;4613;48.392;9.998;2022-11-06T19:44:42;4.53;;;3.10;;
9156;SDS011;4613;48.392;9.998;2022-11-06T19:47:52;3.28;;;2.83;;
9156;SDS011;4613;48.392;9.998;2022-11-06T19:50:46;3.83;;;3.15;;
9156;SDS011;4613;48.392;9.998;2022-11-06T19:53:43;3.83;;;3.25;;
9156;SDS011;4613;48.392;9.998;2022-11-06T19:56:33;4.20;;;3.70;;
9156;SDS011;4613;48.392;9.998;2022-11-06T19:59:24;4.07;;;3.55;;
9156;SDS011;4613;48.392;9.998;2022-11-06T20:02:13;3.65;;;3.35;;
9156;SDS011;4613;48.392;9.998;2022-11-06T20:05:03;4.45;;;3.42;;
9156;SDS011;4613;48.392;9.998;2022-11-06T20:07:54;4.82;;;3.40;;
9156;SDS011;4613;48.392;9.998;2022-11-06T20:10:44;4.53;;;3.50;;
9156;SDS011;4613;48.392;9.998;2022-11-06T20:13:34;4.32;;;3.80;;
9156;SDS011;4613;48.392;9.998;2022-11-06T20:16:27;4.38;;;3.55;;
9156;SDS011;4613;48.392;9.998;2022-11-06T20:19:16;4.15;;;3.05;;
9156;SDS011;4613;48.392;9.998;2022-11-06T20:22:06;4.45;;;3.42;;
9156;SDS011;4613;48.392;9.998;2022-11-06T20:24:56;4.13;;;3.45;;
9156;SDS011;4613;48.392;9.998;2022-11-06T20:27:45;4.38;;;3.38;;
9156;SDS011;4613;48.392;9.998;2022-11-06T20:30:35;3.58;;;2.83;;
9156;SDS011;4613;48.392;9.998;2022-11-06T20:33:25;4.15;;;3.03;;
9156;SDS011;4613;48.392;9.998;2022-11-06T20:36:18;4.15;;;2.95;;
9156;SDS011;4613;48.392;9.998;2022-11-06T20:39:11;4.10;;;2.88;;
9156;SDS011;4613;48.392;9.998;2022-11-06T20:42:02;3.37;;;2.80;;
9156;SDS011;4613;48.392;9.998;2022-11-06T20:44:53;3.35;;;3.00;;
9156;SDS011;4613;48.392;9.998;2022-11-06T20:47:44;4.57;;;2.97;;
9156;SDS011;4613;48.392;9.998;2022-11-06T20:50:34;3.30;;;2.92;;
9156;SDS011;4613;48.392;9.998;2022-11-06T20:53:27;2.57;;;2.33;;
9156;SDS011;4613;48.392;9.998;2022-11-06T20:56:17;3.93;;;2.93;;
9156;SDS011;4613;48.392;9.998;2022-11-06T20:59:08;4.80;;;2.95;;